createdAt,value
2022-12-01T00:00:38.266Z,54.7
2022-12-01T00:01:39.286Z,54.5
2022-12-01T00:02:40.322Z,54.3
2022-12-01T00:03:41.170Z,54.2
2022-12-01T00:04:42.377Z,54
2022-12-01T00:05:44.420Z,54.5
2022-12-01T00:06:46.203Z,54.5
2022-12-01T00:07:47.248Z,54.5
2022-12-01T00:08:48.271Z,54.6
2022-12-01T00:09:50.679Z,54.6
2022-12-01T00:10:52.259Z,54.8
2022-12-01T00:11:53.225Z,54.9
2022-12-01T00:12:54.158Z,55.3
2022-12-01T00:13:55.177Z,55
2022-12-01T00:14:56.345Z,55.6
2022-12-01T00:15:58.357Z,55.5
2022-12-01T00:17:00.418Z,55.3
2022-12-01T00:18:02.317Z,54.9
2022-12-01T00:19:04.437Z,54.7
2022-12-01T00:20:06.429Z,54.6
2022-12-01T00:21:08.119Z,54.3
2022-12-01T00:22:09.164Z,54.1
2022-12-01T00:23:10.228Z,54.3
2022-12-01T00:24:11.201Z,54.4
2022-12-01T00:25:12.377Z,54.7
2022-12-01T00:26:14.377Z,54.7
2022-12-01T00:27:16.258Z,54.7
2022-12-01T00:28:17.232Z,54.6
2022-12-01T00:29:18.159Z,54.6
2022-12-01T00:30:19.258Z,54.9
2022-12-01T00:31:20.374Z,55
2022-12-01T00:32:22.377Z,54.6
2022-12-01T00:33:24.186Z,54.4
2022-12-01T00:34:25.197Z,54.2
2022-12-01T00:35:26.246Z,54.2
2022-12-01T00:36:27.477Z,53.7
2022-12-01T00:37:29.210Z,53.3
2022-12-01T00:38:30.218Z,53.2
2022-12-01T00:39:31.178Z,53.1
2022-12-01T00:40:32.218Z,52.9
2022-12-01T00:41:33.280Z,52.7
2022-12-01T00:42:34.218Z,53
2022-12-01T00:43:35.303Z,53.3
2022-12-01T00:44:37.318Z,53.2
2022-12-01T00:45:39.468Z,53.2
2022-12-01T00:46:41.199Z,52.9
2022-12-01T00:47:42.198Z,53
2022-12-01T00:48:43.279Z,52.9
2022-12-01T00:49:45.484Z,53.1
2022-12-01T00:50:47.443Z,53
2022-12-01T00:51:49.377Z,52.8
2022-12-01T00:52:51.457Z,52.5
2022-12-01T00:53:53.177Z,52.2
2022-12-01T00:54:54.168Z,52.4
2022-12-01T00:55:55.217Z,52.5
2022-12-01T00:56:56.158Z,52.4
2022-12-01T00:57:57.179Z,52.7
2022-12-01T00:58:58.199Z,53.2
2022-12-01T00:59:59.207Z,53.5
2022-12-01T01:01:00.432Z,53.8
2022-12-01T01:02:02.587Z,54.1
2022-12-01T01:03:04.227Z,54.4
2022-12-01T01:04:05.258Z,54.7
2022-12-01T01:05:06.319Z,54.6
2022-12-01T01:06:08.316Z,54.4
2022-12-01T01:07:10.437Z,54
2022-12-01T01:08:12.361Z,53.5
2022-12-01T01:09:14.317Z,53.5
2022-12-01T01:10:16.400Z,53.4
2022-12-01T01:11:18.277Z,53.1
2022-12-01T01:12:19.214Z,52.8
2022-12-01T01:13:20.218Z,52.4
2022-12-01T01:14:21.320Z,52.4
2022-12-01T01:15:23.396Z,52.6
2022-12-01T01:16:25.272Z,52.8
2022-12-01T01:17:26.219Z,52.7
2022-12-01T01:18:27.212Z,52.7
2022-12-01T01:19:28.219Z,53
2022-12-01T01:20:29.158Z,53.5
2022-12-01T01:21:30.251Z,53.8
2022-12-01T01:22:31.277Z,53.9
2022-12-01T01:23:32.281Z,53.9
2022-12-01T01:24:33.155Z,53.9
2022-12-01T01:25:34.252Z,53.7
2022-12-01T01:26:35.201Z,53.7
2022-12-01T01:27:36.246Z,53.9
2022-12-01T01:28:37.279Z,54.2
2022-12-01T01:29:38.160Z,54.5
2022-12-01T01:30:39.404Z,54.4
2022-12-01T01:31:41.321Z,54.6
2022-12-01T01:32:43.418Z,54.4
2022-12-01T01:33:45.462Z,54.2
2022-12-01T01:34:47.298Z,54.1
2022-12-01T01:35:48.257Z,54
2022-12-01T01:36:49.241Z,53.7
2022-12-01T01:37:50.487Z,53.4
2022-12-01T01:38:52.482Z,53.4
2022-12-01T01:39:54.557Z,53.2
2022-12-01T01:40:56.257Z,53
2022-12-01T01:41:57.339Z,52.7
2022-12-01T01:42:59.484Z,52.8
2022-12-01T01:44:01.504Z,52.5
2022-12-01T01:45:03.465Z,52.3
2022-12-01T01:46:05.385Z,52.4
2022-12-01T01:47:07.398Z,52.4
2022-12-01T01:48:09.278Z,52.3
2022-12-01T01:49:10.229Z,52.2
2022-12-01T01:50:11.320Z,52
2022-12-01T01:51:13.838Z,52
2022-12-01T01:52:15.348Z,52.3
2022-12-01T01:53:17.540Z,52.6
2022-12-01T01:54:19.472Z,52.8
2022-12-01T01:55:21.238Z,52.8
2022-12-01T01:56:22.265Z,52.8
2022-12-01T01:57:23.386Z,52.5
2022-12-01T01:58:25.327Z,52.3
2022-12-01T01:59:27.286Z,51.9
2022-12-01T02:00:29.437Z,51.4
2022-12-01T02:01:31.597Z,51.9
2022-12-01T02:02:34.050Z,51.9
2022-12-01T02:07:01.409Z,52.4
2022-12-01T02:08:03.313Z,52
2022-12-01T02:09:04.261Z,51.8
2022-12-01T02:10:05.341Z,51.6
2022-12-01T02:11:06.372Z,51.5
2022-12-01T02:12:08.235Z,51.3
2022-12-01T02:13:09.320Z,51.2
2022-12-01T02:14:10.247Z,51.1
2022-12-01T02:15:11.532Z,51
2022-12-01T02:16:13.750Z,50.9
2022-12-01T02:17:15.434Z,50.8
2022-12-01T02:18:17.256Z,50.5
2022-12-01T02:19:18.412Z,50.2
2022-12-01T02:20:20.222Z,49.8
2022-12-01T02:21:21.432Z,49.7
2022-12-01T02:22:23.333Z,49.6
2022-12-01T02:23:25.213Z,49.9
2022-12-01T02:24:26.255Z,50.5
2022-12-01T02:25:27.260Z,50.9
2022-12-01T02:26:28.472Z,50.9
2022-12-01T02:27:30.473Z,50.7
2022-12-01T02:28:32.272Z,51
2022-12-01T02:29:33.452Z,51.1
2022-12-01T02:30:35.314Z,50.9
2022-12-01T02:31:36.299Z,51.2
2022-12-01T02:32:37.312Z,51.4
2022-12-01T02:33:38.354Z,51.9
2022-12-01T02:34:40.334Z,51.6
2022-12-01T02:35:41.332Z,51.2
2022-12-01T02:36:42.233Z,51.1
2022-12-01T02:37:43.355Z,51
2022-12-01T02:38:45.275Z,50.6
2022-12-01T02:39:46.679Z,50.4
2022-12-01T02:40:48.376Z,50.3
2022-12-01T02:41:49.274Z,50.4
2022-12-01T02:42:50.352Z,50.8
2022-12-01T02:43:52.293Z,50.6
2022-12-01T02:44:53.254Z,51
2022-12-01T02:45:54.552Z,51.1
2022-12-01T02:46:56.592Z,51
2022-12-01T02:47:58.901Z,50.9
2022-12-01T02:49:00.575Z,50.8
2022-12-01T02:50:02.591Z,50.7
2022-12-01T02:51:04.492Z,50.6
2022-12-01T02:52:06.292Z,50.4
2022-12-01T02:53:07.340Z,50.4
2022-12-01T02:54:09.253Z,50.6
2022-12-01T02:55:10.316Z,50.4
2022-12-01T02:56:11.303Z,50.2
2022-12-01T02:57:12.252Z,50.1
2022-12-01T02:58:13.252Z,50.1
2022-12-01T02:59:14.253Z,49.9
2022-12-01T03:00:15.293Z,50.2
2022-12-01T03:01:16.428Z,50.3
2022-12-01T03:02:18.356Z,50.2
2022-12-01T03:03:19.273Z,50.2
2022-12-01T03:04:20.294Z,50.3
2022-12-01T03:05:21.397Z,50.4
2022-12-01T03:06:23.327Z,50.5
2022-12-01T03:07:24.452Z,50.5
2022-12-01T03:08:26.292Z,50.6
2022-12-01T03:09:27.292Z,50.5
2022-12-01T03:10:28.313Z,50.4
2022-12-01T03:11:29.316Z,50.3
2022-12-01T03:12:30.237Z,50.3
2022-12-01T03:13:31.392Z,50
2022-12-01T03:14:33.532Z,49.8
2022-12-01T03:15:35.599Z,49.8
2022-12-01T03:16:37.280Z,49.9
2022-12-01T03:17:38.313Z,49.7
2022-12-01T03:18:39.259Z,49.1
2022-12-01T03:19:40.281Z,49.6
2022-12-01T03:20:41.874Z,49.7
2022-12-01T03:21:43.352Z,49.7
2022-12-01T03:22:44.737Z,49.6
2022-12-01T03:23:46.452Z,49.4
2022-12-01T03:24:48.364Z,49.4
2022-12-01T03:25:49.299Z,49.2
2022-12-01T03:26:50.344Z,49.2
2022-12-01T03:28:19.606Z,49.2
2022-12-01T03:28:53.273Z,49
2022-12-01T03:29:54.252Z,48.9
2022-12-01T03:30:55.290Z,48.9
2022-12-01T03:31:56.290Z,48.9
2022-12-01T03:32:57.238Z,48.8
2022-12-01T03:33:58.271Z,48.7
2022-12-01T03:34:59.486Z,48.8
2022-12-01T03:36:01.511Z,48.8
2022-12-01T03:37:03.413Z,48.6
2022-12-01T03:38:05.453Z,48.5
2022-12-01T03:39:07.413Z,48.6
2022-12-01T03:40:09.298Z,48.6
2022-12-01T03:41:10.334Z,48.9
2022-12-01T03:42:11.297Z,49.1
2022-12-01T03:43:12.262Z,49.1
2022-12-01T03:44:13.333Z,49
2022-12-01T03:45:14.372Z,49
2022-12-01T03:46:16.336Z,49.1
2022-12-01T03:47:17.372Z,48.8
2022-12-01T03:48:19.294Z,48.9
2022-12-01T03:49:20.313Z,49
2022-12-01T03:50:21.252Z,49.1
2022-12-01T03:51:22.314Z,48.8
2022-12-01T03:52:23.313Z,48.8
2022-12-01T03:53:24.314Z,49
2022-12-01T03:54:25.332Z,48.9
2022-12-01T03:55:26.294Z,48.7
2022-12-01T03:56:27.376Z,48.6
2022-12-01T03:57:29.398Z,48.3
2022-12-01T03:58:31.436Z,48.6
2022-12-01T03:59:33.326Z,48.7
2022-12-01T04:00:34.353Z,48.8
2022-12-01T04:01:35.400Z,48.7
2022-12-01T04:02:36.453Z,48.7
2022-12-01T04:03:38.493Z,48.6
2022-12-01T04:04:40.473Z,48.6
2022-12-01T04:05:42.302Z,48.5
2022-12-01T04:06:43.351Z,48.6
2022-12-01T04:07:44.364Z,48.6
2022-12-01T04:08:45.594Z,48.7
2022-12-01T04:09:47.635Z,48.7
2022-12-01T04:10:48.271Z,48.6
2022-12-01T04:11:49.273Z,48.6
2022-12-01T04:12:50.361Z,48.6
2022-12-01T04:13:51.233Z,48.5
2022-12-01T04:14:52.296Z,48.6
2022-12-01T04:15:53.392Z,48.7
2022-12-01T04:16:54.332Z,48.7
2022-12-01T04:17:55.336Z,48.8
2022-12-01T04:18:56.332Z,48.8
2022-12-01T04:19:57.311Z,48.7
2022-12-01T04:20:58.320Z,48.7
2022-12-01T04:21:59.413Z,48.6
2022-12-01T04:23:01.372Z,48.6
2022-12-01T04:24:02.353Z,48.5
2022-12-01T04:25:03.371Z,48.5
2022-12-01T04:26:04.282Z,48.5
2022-12-01T04:27:05.276Z,48.5
2022-12-01T04:28:06.376Z,48.6
2022-12-01T04:29:07.341Z,48.6
2022-12-01T04:30:08.620Z,48.5
2022-12-01T04:31:10.535Z,48.4
2022-12-01T04:32:12.312Z,48.4
2022-12-01T04:33:13.392Z,48.5
2022-12-01T04:34:15.252Z,48.5
2022-12-01T04:35:16.333Z,48.5
2022-12-01T04:36:17.255Z,48.6
2022-12-01T04:37:18.474Z,48.6
2022-12-01T04:38:20.313Z,48.6
2022-12-01T04:39:21.352Z,48.5
2022-12-01T04:40:22.349Z,48.4
2022-12-01T04:41:23.332Z,48.5
2022-12-01T04:42:24.293Z,48.4
2022-12-01T04:43:25.461Z,48.5
2022-12-01T04:44:31.571Z,48.5
2022-12-01T04:45:28.572Z,48.6
2022-12-01T04:46:30.552Z,48.6
2022-12-01T04:47:32.443Z,48.4
2022-12-01T04:48:34.619Z,48.5
2022-12-01T04:49:36.557Z,48.5
2022-12-01T04:50:38.379Z,48.5
2022-12-01T04:51:39.311Z,48.5
2022-12-01T04:52:40.293Z,48.5
2022-12-01T04:53:41.432Z,48.6
2022-12-01T04:54:43.333Z,48.5
2022-12-01T04:55:44.472Z,48.6
2022-12-01T04:56:46.513Z,48.7
2022-12-01T04:57:48.292Z,48.6
2022-12-01T04:58:49.382Z,48.7
2022-12-01T04:59:50.534Z,48.6
2022-12-01T05:00:51.449Z,48.5
2022-12-01T05:01:53.436Z,48.6
2022-12-01T05:02:54.327Z,48.6
2022-12-01T05:03:55.419Z,48.6
2022-12-01T05:04:57.292Z,48.6
2022-12-01T05:05:58.314Z,48.6
2022-12-01T05:06:59.356Z,48.7
2022-12-01T05:08:00.448Z,48.7
2022-12-01T05:09:02.613Z,48.8
2022-12-01T05:10:04.432Z,48.8
2022-12-01T05:11:06.493Z,48.8
2022-12-01T05:12:08.356Z,48.8
2022-12-01T05:13:09.353Z,48.9
2022-12-01T05:14:10.752Z,48.7
2022-12-01T05:15:12.432Z,48.8
2022-12-01T05:16:14.628Z,48.8
2022-12-01T05:17:16.490Z,48.7
2022-12-01T05:18:18.349Z,48.7
2022-12-01T05:19:19.342Z,48.2
2022-12-01T05:20:20.352Z,48.5
2022-12-01T05:21:21.355Z,48.5
2022-12-01T05:22:36.633Z,48.6
2022-12-01T05:23:23.333Z,48.6
2022-12-01T05:24:24.373Z,48.6
2022-12-01T05:25:25.311Z,48.6
2022-12-01T05:26:26.312Z,48.5
2022-12-01T05:27:27.273Z,48.6
2022-12-01T05:28:28.492Z,48.7
2022-12-01T05:29:30.560Z,48.6
2022-12-01T05:30:32.663Z,48.6
2022-12-01T05:31:34.671Z,48.5
2022-12-01T05:32:36.472Z,48.5
2022-12-01T05:33:38.346Z,48.6
2022-12-01T05:34:39.296Z,48.7
2022-12-01T05:35:40.527Z,48.6
2022-12-01T05:36:42.613Z,48.6
2022-12-01T05:37:44.433Z,48.7
2022-12-01T05:38:46.452Z,48.6
2022-12-01T05:39:48.928Z,48.6
2022-12-01T05:40:50.392Z,48.5
2022-12-01T05:41:51.375Z,48.4
2022-12-01T05:42:52.333Z,48.5
2022-12-01T05:43:53.351Z,48.5
2022-12-01T05:44:54.425Z,48.5
2022-12-01T05:45:55.476Z,48.6
2022-12-01T05:46:56.393Z,48.5
2022-12-01T05:47:57.237Z,48.6
2022-12-01T05:48:58.391Z,48.6
2022-12-01T05:50:03.713Z,48.7
2022-12-01T05:51:01.487Z,48.7
2022-12-01T05:52:03.537Z,48.8
2022-12-01T05:53:05.571Z,48.8
2022-12-01T05:54:07.612Z,48.8
2022-12-01T05:55:09.329Z,48.8
2022-12-01T05:56:10.433Z,48.8
2022-12-01T05:57:12.563Z,48.8
2022-12-01T05:58:14.514Z,48.8
2022-12-01T05:59:16.515Z,48.8
2022-12-01T06:00:18.608Z,48.8
2022-12-01T06:01:20.318Z,48.8
2022-12-01T06:02:21.449Z,48.8
2022-12-01T06:03:22.434Z,48.8
2022-12-01T06:04:24.466Z,48.8
2022-12-01T06:05:25.380Z,48.8
2022-12-01T06:06:26.441Z,48.8
2022-12-01T06:07:28.697Z,48.9
2022-12-01T06:08:30.654Z,48.8
2022-12-01T06:09:32.652Z,49
2022-12-01T06:10:34.487Z,48.9
2022-12-01T06:11:36.287Z,49.3
2022-12-01T06:12:37.633Z,49.5
2022-12-01T06:13:39.359Z,49.5
2022-12-01T06:14:40.392Z,49.5
2022-12-01T06:15:41.378Z,49.4
2022-12-01T06:16:42.523Z,49.4
2022-12-01T06:17:45.692Z,49.5
2022-12-01T06:18:47.492Z,49.5
2022-12-01T06:19:49.767Z,49.4
2022-12-01T06:20:51.552Z,49.5
2022-12-01T06:21:53.418Z,49.5
2022-12-01T06:22:55.336Z,49.5
2022-12-01T06:23:56.481Z,49.5
2022-12-01T06:24:58.393Z,49.4
2022-12-01T06:26:00.376Z,49.3
2022-12-01T06:27:01.373Z,49
2022-12-01T06:28:02.598Z,49
2022-12-01T06:29:04.532Z,49.1
2022-12-01T06:30:06.653Z,49.4
2022-12-01T06:31:08.363Z,49.6
2022-12-01T06:32:09.456Z,49.6
2022-12-01T06:33:10.474Z,49.8
2022-12-01T06:34:12.457Z,50
2022-12-01T06:35:14.551Z,50.1
2022-12-01T06:36:16.497Z,50.1
2022-12-01T06:37:18.732Z,50
2022-12-01T06:38:20.593Z,49.7
2022-12-01T06:39:23.217Z,50
2022-12-01T06:40:24.352Z,50.2
2022-12-01T06:41:26.632Z,50.3
2022-12-01T06:42:28.895Z,50.2
2022-12-01T06:43:31.073Z,50.2
2022-12-01T06:44:32.415Z,50.2
2022-12-01T06:45:34.157Z,50.2
2022-12-01T06:46:35.582Z,50
2022-12-01T06:47:37.615Z,49.9
2022-12-01T06:48:39.429Z,49.8
2022-12-01T06:49:40.460Z,49.7
2022-12-01T06:50:42.414Z,49.7
2022-12-01T06:51:43.426Z,49.7
2022-12-01T06:52:45.954Z,49.7
2022-12-01T06:53:47.361Z,49.7
2022-12-01T06:54:48.412Z,49.6
2022-12-01T06:55:49.393Z,49.1
2022-12-01T06:56:50.340Z,49.5
2022-12-01T06:57:51.816Z,49.7
2022-12-01T06:58:53.432Z,49.6
2022-12-01T06:59:54.468Z,49.7
2022-12-01T07:00:56.382Z,49.6
2022-12-01T07:01:57.658Z,49.5
2022-12-01T07:02:59.595Z,49.6
2022-12-01T07:04:01.404Z,49.6
2022-12-01T07:05:02.452Z,49.6
2022-12-01T07:06:03.432Z,49.6
2022-12-01T07:07:04.573Z,49.4
2022-12-01T07:08:06.452Z,49.4
2022-12-01T07:09:07.657Z,49.4
2022-12-01T07:10:10.208Z,49.4
2022-12-01T07:11:11.733Z,49.4
2022-12-01T07:12:13.437Z,49.3
2022-12-01T07:13:14.552Z,49.4
2022-12-01T07:14:16.401Z,49.4
2022-12-01T07:15:18.374Z,49.3
2022-12-01T07:16:19.415Z,49
2022-12-01T07:17:20.471Z,49.3
2022-12-01T07:18:21.493Z,49.3
2022-12-01T07:19:23.371Z,49.3
2022-12-01T07:20:24.876Z,49.2
2022-12-01T07:21:26.647Z,49.3
2022-12-01T07:22:32.551Z,49.3
2022-12-01T07:23:30.436Z,49.2
2022-12-01T07:24:31.393Z,49.3
2022-12-01T07:25:32.353Z,49.2
2022-12-01T07:26:33.572Z,49.2
2022-12-01T07:27:36.176Z,49.5
2022-12-01T07:28:37.600Z,49.7
2022-12-01T07:29:39.417Z,49.6
2022-12-01T07:30:41.569Z,49.5
2022-12-01T07:31:43.988Z,49.5
2022-12-01T07:32:45.682Z,49.4
2022-12-01T07:33:47.436Z,48.6
2022-12-01T07:34:48.394Z,49.2
2022-12-01T07:35:49.443Z,49.3
2022-12-01T07:36:50.934Z,49.1
2022-12-01T07:37:52.602Z,48.9
2022-12-01T07:38:55.141Z,49
2022-12-01T07:39:56.462Z,48.7
2022-12-01T07:40:57.440Z,49
2022-12-01T07:41:58.453Z,49.2
2022-12-01T07:42:59.493Z,49.3
2022-12-01T07:44:02.054Z,49.3
2022-12-01T07:45:03.795Z,49.4
2022-12-01T07:46:05.785Z,49.3
2022-12-01T07:47:07.401Z,49.3
2022-12-01T07:48:08.438Z,49.2
2022-12-01T07:49:09.524Z,49.1
2022-12-01T07:50:11.393Z,48.9
2022-12-01T07:51:12.501Z,48.9
2022-12-01T07:52:14.519Z,49
2022-12-01T07:53:17.102Z,49
2022-12-01T07:54:18.872Z,49.1
2022-12-01T07:55:20.414Z,49.1
2022-12-01T07:56:21.454Z,49.2
2022-12-01T07:57:22.473Z,49.2
2022-12-01T07:58:23.425Z,49.1
2022-12-01T07:59:24.472Z,48.7
2022-12-01T08:00:25.456Z,48.7
2022-12-01T08:01:26.430Z,48.8
2022-12-01T08:02:27.536Z,49
2022-12-01T08:03:29.470Z,49
2022-12-01T08:04:30.334Z,49
2022-12-01T08:05:31.773Z,48.8
2022-12-01T08:06:33.672Z,48.8
2022-12-01T08:07:35.449Z,49
2022-12-01T08:08:36.614Z,49.1
2022-12-01T08:09:38.513Z,49
2022-12-01T08:10:40.705Z,48.9
2022-12-01T08:11:42.532Z,48.8
2022-12-01T08:12:44.693Z,48.4
2022-12-01T08:13:47.235Z,48.4
2022-12-01T08:14:48.606Z,48.7
2022-12-01T08:15:50.743Z,48.6
2022-12-01T08:16:52.388Z,48.9
2022-12-01T08:17:53.499Z,49.3
2022-12-01T08:18:55.539Z,49.4
2022-12-01T08:19:57.412Z,49.3
2022-12-01T08:20:58.412Z,49.1
2022-12-01T08:21:59.373Z,48.9
2022-12-01T08:23:00.434Z,48.7
2022-12-01T08:24:01.433Z,48.8
2022-12-01T08:25:02.513Z,48.8
2022-12-01T08:26:04.437Z,48.8
2022-12-01T08:27:05.462Z,48.9
2022-12-01T08:28:06.473Z,49
2022-12-01T08:29:07.414Z,49
2022-12-01T08:30:08.643Z,48.8
2022-12-01T08:31:10.640Z,48.6
2022-12-01T08:32:12.593Z,48.4
2022-12-01T08:33:14.594Z,48.3
2022-12-01T08:34:16.502Z,48.4
2022-12-01T08:35:17.515Z,48.4
2022-12-01T08:36:19.473Z,48.2
2022-12-01T08:37:20.455Z,48.1
2022-12-01T08:38:21.548Z,47.5
2022-12-01T08:39:24.132Z,47.6
2022-12-01T08:40:25.473Z,47.6
2022-12-01T08:41:26.632Z,47.7
2022-12-01T08:42:28.844Z,47.6
2022-12-01T08:44:32.572Z,47.5
2022-12-01T08:45:34.873Z,47.7
2022-12-01T08:46:36.650Z,47.8
2022-12-01T08:47:38.834Z,47.6
2022-12-01T08:48:40.473Z,46.8
2022-12-01T08:49:41.480Z,47.2
2022-12-01T08:50:42.499Z,47.3
2022-12-01T08:51:44.473Z,47.2
2022-12-01T08:52:45.657Z,47.2
2022-12-01T08:53:47.386Z,47
2022-12-01T08:54:48.393Z,46.9
2022-12-01T08:55:49.474Z,46.8
2022-12-01T08:56:50.772Z,46.8
2022-12-01T08:57:52.552Z,46.8
2022-12-01T08:58:55.052Z,46.8
2022-12-01T08:59:56.594Z,46.4
2022-12-01T09:00:58.733Z,46.7
2022-12-01T09:02:05.455Z,46.7
2022-12-01T09:03:02.585Z,47.1
2022-12-01T09:04:06.078Z,47.1
2022-12-01T09:05:07.699Z,47.2
2022-12-01T09:06:09.405Z,47.1
2022-12-01T09:07:10.420Z,47.1
2022-12-01T09:08:11.666Z,46.9
2022-12-01T09:09:13.797Z,47
2022-12-01T09:10:15.719Z,46.6
2022-12-01T09:11:17.425Z,46.8
2022-12-01T09:12:18.413Z,47
2022-12-01T09:13:19.353Z,47
2022-12-01T09:14:20.481Z,46.8
2022-12-01T09:15:21.542Z,46.9
2022-12-01T09:16:23.611Z,47.2
2022-12-01T09:17:25.412Z,47.3
2022-12-01T09:18:26.526Z,47.5
2022-12-01T09:19:28.831Z,47.6
2022-12-01T09:20:30.656Z,47.9
2022-12-01T09:21:32.772Z,48
2022-12-01T09:22:35.675Z,48
2022-12-01T09:23:37.393Z,47.8
2022-12-01T09:24:38.512Z,47.6
2022-12-01T09:25:39.822Z,47.5
2022-12-01T09:26:41.452Z,47.4
2022-12-01T09:27:42.514Z,47.4
2022-12-01T09:28:43.381Z,47.5
2022-12-01T09:29:44.553Z,47.4
2022-12-01T09:30:46.867Z,47.4
2022-12-01T09:31:48.560Z,47.5
2022-12-01T09:32:49.451Z,47.4
2022-12-01T09:33:50.653Z,47.4
2022-12-01T09:34:53.254Z,47.3
2022-12-01T09:35:54.594Z,47
2022-12-01T09:36:56.652Z,47
2022-12-01T09:37:58.826Z,46.9
2022-12-01T09:39:00.817Z,46.9
2022-12-01T09:40:02.661Z,46.9
2022-12-01T09:41:05.619Z,46.9
2022-12-01T09:42:08.951Z,46.9
2022-12-01T09:43:09.532Z,46.9
2022-12-01T09:44:11.435Z,46.9
2022-12-01T09:45:13.161Z,46.9
2022-12-01T09:46:14.612Z,47
2022-12-01T09:47:16.672Z,47
2022-12-01T09:48:18.492Z,46.9
2022-12-01T09:49:19.512Z,47
2022-12-01T09:50:20.606Z,47
2022-12-01T09:51:22.764Z,46.8
2022-12-01T09:52:24.654Z,46.9
2022-12-01T09:53:26.478Z,46.6
2022-12-01T09:54:27.578Z,46.8
2022-12-01T09:55:29.873Z,46.9
2022-12-01T09:56:33.812Z,46.9
2022-12-01T09:57:35.852Z,46.9
2022-12-01T09:58:38.140Z,47
2022-12-01T09:59:39.432Z,46.9
2022-12-01T10:00:40.751Z,46.9
2022-12-01T10:01:42.912Z,46.9
2022-12-01T10:02:44.517Z,46.9
2022-12-01T10:03:47.520Z,46.8
2022-12-01T10:04:48.337Z,46.9
2022-12-01T10:06:18.345Z,46.9
2022-12-01T10:06:50.502Z,46.8
2022-12-01T10:07:51.651Z,47
2022-12-01T10:08:53.593Z,47.1
2022-12-01T10:09:55.713Z,47.3
2022-12-01T10:10:57.553Z,47.1
2022-12-01T10:11:59.473Z,47
2022-12-01T10:13:01.539Z,46.9
2022-12-01T10:14:03.840Z,46.9
2022-12-01T10:15:06.044Z,46.9
2022-12-01T10:16:08.837Z,46.7
2022-12-01T10:17:10.794Z,46.8
2022-12-01T10:18:13.346Z,46.9
2022-12-01T10:19:14.812Z,46.6
2022-12-01T10:20:17.738Z,46.8
2022-12-01T10:21:19.553Z,47.1
2022-12-01T10:22:21.619Z,47.1
2022-12-01T10:23:23.893Z,46.9
2022-12-01T10:24:25.812Z,46.9
2022-12-01T10:25:28.132Z,46.9
2022-12-01T10:26:29.564Z,46.9
2022-12-01T10:27:31.636Z,46.9
2022-12-01T10:28:33.466Z,46.9
2022-12-01T10:29:34.487Z,47
2022-12-01T10:30:35.854Z,47.2
2022-12-01T10:31:37.817Z,47.4
2022-12-01T10:32:39.773Z,47.5
2022-12-01T10:33:41.793Z,47.6
2022-12-01T10:34:43.572Z,47.4
2022-12-01T10:35:45.735Z,47.5
2022-12-01T10:36:47.476Z,47.2
2022-12-01T10:37:48.806Z,47
2022-12-01T10:38:50.832Z,47
2022-12-01T10:39:53.366Z,47
2022-12-01T10:40:54.528Z,46.9
2022-12-01T10:41:55.473Z,46.9
2022-12-01T10:42:56.552Z,46.9
2022-12-01T10:43:58.973Z,46.9
2022-12-01T10:45:00.713Z,47
2022-12-01T10:46:02.601Z,47.3
2022-12-01T10:47:04.434Z,47.5
2022-12-01T10:48:05.613Z,47.7
2022-12-01T10:49:07.523Z,47.7
2022-12-01T10:50:08.712Z,47.8
2022-12-01T10:51:11.241Z,47.6
2022-12-01T10:52:12.982Z,47.3
2022-12-01T10:53:15.057Z,47.4
2022-12-01T10:54:16.494Z,46.9
2022-12-01T10:55:17.612Z,47.7
2022-12-01T10:56:19.614Z,48.1
2022-12-01T10:57:21.533Z,48.1
2022-12-01T10:58:22.473Z,48.4
2022-12-01T10:59:23.625Z,48.7
2022-12-01T11:00:57.829Z,48.7
2022-12-01T11:01:27.648Z,48.9
2022-12-01T11:02:29.867Z,48.8
2022-12-01T11:03:31.734Z,48.6
2022-12-01T11:04:32.674Z,48.5
2022-12-01T11:05:34.623Z,48.6
2022-12-01T11:06:36.952Z,48.9
2022-12-01T11:07:38.517Z,48.8
2022-12-01T11:08:39.806Z,48.9
2022-12-01T11:09:41.693Z,48.6
2022-12-01T11:10:43.633Z,48.7
2022-12-01T11:11:46.374Z,48.4
2022-12-01T11:12:47.595Z,48.5
2022-12-01T11:13:49.494Z,48.5
2022-12-01T11:14:50.512Z,48.5
2022-12-01T11:15:51.554Z,48.3
2022-12-01T11:16:52.616Z,48.4
2022-12-01T11:17:53.954Z,48.3
2022-12-01T11:18:55.708Z,48.2
2022-12-01T11:19:57.676Z,48.3
2022-12-01T11:20:59.518Z,48.5
2022-12-01T11:22:03.732Z,48.4
2022-12-01T11:23:05.796Z,48.3
2022-12-01T11:24:07.561Z,48.2
2022-12-01T11:25:08.626Z,48.2
2022-12-01T11:26:10.560Z,48.4
2022-12-01T11:27:11.472Z,48.4
2022-12-01T11:28:12.593Z,48.1
2022-12-01T11:29:14.513Z,47.8
2022-12-01T11:30:15.673Z,47.7
2022-12-01T11:31:18.073Z,47.2
2022-12-01T11:32:19.747Z,46.9
2022-12-01T11:33:21.862Z,47.3
2022-12-01T11:34:23.510Z,47.9
2022-12-01T11:35:24.573Z,48.2
2022-12-01T11:36:25.814Z,48.1
2022-12-01T11:37:27.808Z,48.2
2022-12-01T11:38:30.369Z,48.1
2022-12-01T11:39:31.060Z,48.1
2022-12-01T11:40:33.112Z,47.9
2022-12-01T11:41:34.593Z,47.7
2022-12-01T11:42:36.738Z,47.6
2022-12-01T11:43:38.986Z,47.9
2022-12-01T11:44:51.223Z,48.1
2022-12-01T11:45:42.866Z,48.2
2022-12-01T11:46:50.258Z,48.4
2022-12-01T11:47:46.520Z,48.6
2022-12-01T11:48:47.623Z,48.8
2022-12-01T11:49:49.927Z,48.6
2022-12-01T11:50:51.834Z,48.3
2022-12-01T11:51:53.863Z,48.4
2022-12-01T11:52:55.745Z,48.6
2022-12-01T11:53:58.213Z,48.9
2022-12-01T11:55:00.948Z,49
2022-12-01T11:56:01.854Z,49
2022-12-01T11:58:05.572Z,48.8
2022-12-01T11:59:06.532Z,48.5
2022-12-01T12:00:08.281Z,48.5
2022-12-01T12:01:09.973Z,48.5
2022-12-01T12:02:11.806Z,48.4
2022-12-01T12:03:13.683Z,48.8
2022-12-01T12:04:15.614Z,49.2
2022-12-01T12:05:17.595Z,49.5
2022-12-01T12:07:20.751Z,49.7
2022-12-01T12:08:22.573Z,49.5
2022-12-01T12:09:23.513Z,49.3
2022-12-01T12:10:24.733Z,49.3
2022-12-01T12:11:26.533Z,49.2
2022-12-01T12:12:27.633Z,49.5
2022-12-01T12:13:29.694Z,49.5
2022-12-01T12:14:31.552Z,49.6
2022-12-01T12:15:32.918Z,49.7
2022-12-01T12:16:34.833Z,49.8
2022-12-01T12:17:36.750Z,49.7
2022-12-01T12:18:38.794Z,49.4
2022-12-01T12:20:00.333Z,49.3
2022-12-01T12:20:42.508Z,49.1
2022-12-01T12:21:43.973Z,49.1
2022-12-01T12:22:46.888Z,49.1
2022-12-01T12:23:46.692Z,49
2022-12-01T12:24:48.696Z,48.8
2022-12-01T12:25:50.983Z,48.3
2022-12-01T12:26:52.633Z,48.2
2022-12-01T12:27:54.610Z,48.5
2022-12-01T12:28:57.082Z,47.8
2022-12-01T12:29:58.653Z,48.4
2022-12-01T12:31:01.069Z,48.8
2022-12-01T12:32:02.714Z,48.9
2022-12-01T12:33:04.733Z,48.8
2022-12-01T12:34:06.632Z,48.7
2022-12-01T12:35:08.692Z,48.7
2022-12-01T12:36:10.912Z,48.5
2022-12-01T12:37:12.580Z,48.6
2022-12-01T12:38:13.673Z,48.7
2022-12-01T12:39:16.882Z,48.9
2022-12-01T12:40:18.112Z,49.2
2022-12-01T12:41:19.882Z,49
2022-12-01T12:42:21.517Z,48.8
2022-12-01T12:43:22.813Z,48.6
2022-12-01T12:44:24.753Z,48.2
2022-12-01T12:45:26.943Z,48
2022-12-01T12:46:28.972Z,47.8
2022-12-01T12:47:30.499Z,47.7
2022-12-01T12:49:03.822Z,47.7
2022-12-01T12:49:48.704Z,47.7
2022-12-01T12:50:49.540Z,47.5
2022-12-01T12:51:50.581Z,47.4
2022-12-01T12:52:51.514Z,47.3
2022-12-01T12:53:52.751Z,47.3
2022-12-01T12:54:54.723Z,47.3
2022-12-01T12:55:56.713Z,47.3
2022-12-01T12:56:58.921Z,47.3
2022-12-01T12:58:00.695Z,47.3
2022-12-01T12:59:02.952Z,47.2
2022-12-01T13:00:05.154Z,47.2
2022-12-01T13:01:07.222Z,47.3
2022-12-01T13:02:08.692Z,47.4
2022-12-01T13:03:10.968Z,47.7
2022-12-01T13:04:12.897Z,47.9
2022-12-01T13:05:15.273Z,47.8
2022-12-01T13:06:16.716Z,47.8
2022-12-01T13:07:19.644Z,47.7
2022-12-01T13:08:21.593Z,47.7
2022-12-01T13:09:22.555Z,48.4
2022-12-01T13:10:23.905Z,48.8
2022-12-01T13:11:25.681Z,49
2022-12-01T13:12:27.961Z,49.1
2022-12-01T13:13:29.794Z,49.5
2022-12-01T13:14:31.853Z,49.7
2022-12-01T13:15:33.811Z,49.5
2022-12-01T13:16:35.672Z,49.5
2022-12-01T13:17:37.801Z,49.4
2022-12-01T13:18:39.711Z,49.6
2022-12-01T13:19:41.813Z,49.9
2022-12-01T13:20:43.694Z,50.1
2022-12-01T13:21:45.700Z,50.2
2022-12-01T13:22:47.612Z,50.4
2022-12-01T13:23:48.673Z,50.3
2022-12-01T13:24:50.612Z,50.5
2022-12-01T13:25:51.612Z,50.3
2022-12-01T13:26:52.717Z,50
2022-12-01T13:27:54.691Z,49.8
2022-12-01T13:28:56.780Z,49.6
2022-12-01T13:29:58.752Z,49.4
2022-12-01T13:31:00.637Z,49.4
2022-12-01T13:32:02.837Z,49.4
2022-12-01T13:33:04.845Z,49.3
2022-12-01T13:34:06.894Z,49
2022-12-01T13:35:08.593Z,49.1
2022-12-01T13:37:11.932Z,49.6
2022-12-01T13:38:13.861Z,49.7
2022-12-01T13:39:15.943Z,49.7
2022-12-01T13:40:17.713Z,49.5
2022-12-01T13:41:19.916Z,49.1
2022-12-01T13:42:21.956Z,48.6
2022-12-01T13:43:23.871Z,48.6
2022-12-01T13:44:25.694Z,49.1
2022-12-01T13:45:27.891Z,49.2
2022-12-01T13:46:29.731Z,49.2
2022-12-01T13:47:31.764Z,49
2022-12-01T13:48:33.563Z,48.9
2022-12-01T13:49:34.582Z,49.1
2022-12-01T13:50:35.556Z,49.3
2022-12-01T13:51:36.771Z,49.4
2022-12-01T13:52:38.761Z,49.8